• Join FlightAware (Why Join?)
  • Login
  • US Flag GB Flag 
13:10 EDT


 

Airport Tracker/Info


-or-


 

Live Flight TrackerFlight Track Log ✈ EJA922 ✈ 26-Jun-2013 ✈ KMKC - KOMA

Flight Track Log - Related Links

Times and Time Zones

All times are in EDT time to prevent confusion due to time zone crossing. See the EJA922 flight status page for this flight to view local times or setup timezone preferences in your user account.

Time Position Orientation Groundspeed Altitude Reporting Facility
EDT Latitude Longitude Course Direction KTS MPH feet Rate Location/Type
18:54 39.1333 -94.5833 23° Northeast 176 203 1,400  Level Kansas City TRACON
18:55 39.1769 -94.5592 23° Northeast 222 255 4,000 1,980 Climbing Kansas City Center
18:56 39.2342 -94.5022 38° Northeast 273 314 5,000 2,160 Climbing Kansas City Center
18:57 39.3081 -94.4878 North 245 282 8,500 2,580 Climbing Kansas City Center
18:58 39.3694 -94.5297 332° Northwest 262 302 10,400 1,440 Climbing Kansas City Center
18:59 39.4611 -94.5914 333° Northwest 334 384 11,600 1,020 Climbing Kansas City Center
19:00 39.5503 -94.6519 332° Northwest 375 432 12,600 1,080 Climbing Kansas City Center
19:01 39.6603 -94.7250 333° Northwest 397 457 13,900 660 Climbing Kansas City Center
19:02 39.7575 -94.7914 332° Northwest 410 472 14,000  Climbing Kansas City Center
19:03 39.8717 -94.8686 333° Northwest 413 475 14,000  Level Kansas City Center
19:04 39.9708 -94.9283 335° Northwest 413 475 14,000  Level Kansas City Center
19:05 40.0972 -94.9553 351° North 413 475 14,000  Level Kansas City Center
19:06 40.2064 -94.9761 352° North 413 475 14,000  Level Kansas City Center
19:07 40.3333 -94.9969 353° North 411 473 14,000  Level Kansas City Center
19:09 40.4422 -95.0189 351° North 412 474 14,000  Level Kansas City Center
19:09 40.5750 -95.0300 356° North 414 476 14,000  Level Minneapolis Center
19:10 40.6517 -95.0478 350° North 411 473 14,000  Level Minneapolis Center
19:11 40.7081 -95.0708 343° North 412 474 14,000 -480 Level Minneapolis Center
19:12 40.7950 -95.1186 337° Northwest 381 438 13,200 -840 Descending Minneapolis Center
19:13 40.8586 -95.2192 310° West 364 419 12,300 -1,020 Descending Minneapolis Center
19:14 40.9225 -95.3264 308° West 367 422 11,200 -1,260 Descending Minneapolis Center
19:15 40.9833 -95.4278 308° West 306 352 9,800 -1,440 Descending Minneapolis Center
19:16 41.0239 -95.5336 297° West 248 285 7,900 -1,500 Descending Minneapolis Center
19:17 41.0417 -95.6033 289° West 265 305 6,700 -1,560 Descending Minneapolis Center
19:18 41.0886 -95.6914 305° West 259 298 4,800 -1,200 Descending Minneapolis Center
19:19 41.1469 -95.7428 326° Northwest 186 214 4,000 -660 Descending Minneapolis Center
19:20 41.1872 -95.7797 325° Northwest 173 199 3,500 -780 Descending Minneapolis Center
19:21 41.2275 -95.8219 322° Northwest 188 216 2,500 -960 Descending Minneapolis Center
19:22 41.2722 -95.8639 325° Northwest 177 204 1,600 -720 Descending Minneapolis Center
19:23 41.3047 -95.8933 326° Northwest 167 192 1,000 -540 Descending Minneapolis Center
19:25 41.3000 -95.8833 323° Northwest  Level FlightAware Approximate